Pagrindinis puslapis
METAR-TAF:

METAR-TAF

Oro uostai :

Pskovas, Rusija

platuma: 57-47-06N, ilguma: 028-23-54E, Aukštis: 47 m

Dabartinis oras

Ataskaita buvo paskelbta 21 minutes, ne 01:00 UTC
Vėjas 6 kt iš Pietų/Pietryčių
Temperatūra 3°C
Drėgmė 100%
Slėgis 1017 hPa
Matomumas: 1000 m
Apsiniaukę ne aukštis 100 ft
rūkana

METAR: ULOO 270100Z 16003MPS 1200 1000NE R19/P2000D BR OVC001 03/03 Q1017 NOSIG RMK QBB050 OBST OBSC QFE759

Laikas: 04:21 (01:21 UTC)

Prognozė

Ataskaita buvo paskelbta 2 valandos ir 25 minutes, ne 22:56 UTC
Prognozė galioja nuo 27 metu 00 UTC su 27 metu 09 UTC
Vėjas 6 kt iš Pietų/Pietryčių
Matomumas: 2000 m
Apsiniaukę ne aukštis 300 ft
lietus, rūkana
Laikinai
nuo 27 metu 00 UTC su 27 metu 09 UTC
Matomumas: 0300 m
Apsiniaukę ne aukštis 100 ft
dulksna, rūkas,

TAF: ULOO 262256Z 2700/2709 15003MPS 2000 -RA BR OVC003 TEMPO 2700/2709 0300 DZ FG OVC001

Orai ataskaitas ir orų prognozės (METAR, TAF).

turimą stotys yra geltonos ir raudonos taškus žemėlapyje.

Perkelti pele per norėdami pamatyti stoties vardą.

Tada spustelėkite, norėdami matyti oro stebėjimo ir prognozės.

Norėdami pakeisti žemėlapį: spustelėkite ant žalios mygtukų su juodo kryžiaus žemyn,; žalią mygtuką su brūkšneliu, jei norite nutolinti; arba žalių rodyklių gretimoms žemėlapius.


METAR-TAF: